createdAt,value
2023-04-25T00:00:41.893Z,1002.20
2023-04-25T00:01:41.873Z,1002.22
2023-04-25T00:02:41.959Z,1002.13
2023-04-25T00:03:42.016Z,1002.15
2023-04-25T00:04:42.024Z,1002.14
2023-04-25T00:05:41.902Z,1002.18
2023-04-25T00:06:41.802Z,1002.14
2023-04-25T00:07:41.798Z,1002.12
2023-04-25T00:08:41.780Z,1002.12
2023-04-25T00:09:41.775Z,1002.14
2023-04-25T00:10:41.766Z,1002.13
2023-04-25T00:11:41.748Z,1002.12
2023-04-25T00:12:41.731Z,1002.15
2023-04-25T00:13:41.736Z,1002.10
2023-04-25T00:14:41.747Z,1002.11
2023-04-25T00:15:41.716Z,1002.19
2023-04-25T00:16:41.716Z,1002.17
2023-04-25T00:17:41.765Z,1002.20
2023-04-25T00:18:41.670Z,1002.18
2023-04-25T00:19:41.666Z,1002.27
2023-04-25T00:20:41.648Z,1002.21
2023-04-25T00:21:41.768Z,1002.28
2023-04-25T00:22:41.623Z,1002.24
2023-04-25T00:23:41.612Z,1002.29
2023-04-25T00:24:41.596Z,1002.30
2023-04-25T00:25:41.621Z,1002.29
2023-04-25T00:26:41.578Z,1002.33
2023-04-25T00:27:41.562Z,1002.32
2023-04-25T00:28:41.553Z,1002.34
2023-04-25T00:29:41.544Z,1002.34
2023-04-25T00:30:41.528Z,1002.38
2023-04-25T00:31:41.599Z,1002.39
2023-04-25T00:32:41.559Z,1002.38
2023-04-25T00:33:41.495Z,1002.43
2023-04-25T00:34:41.498Z,1002.41
2023-04-25T00:35:41.475Z,1002.43
2023-04-25T00:36:41.472Z,1002.44
2023-04-25T00:37:41.463Z,1002.50
2023-04-25T00:38:41.440Z,1002.45
2023-04-25T00:39:41.433Z,1002.46
2023-04-25T00:40:41.417Z,1002.47
2023-04-25T00:41:41.419Z,1002.46
2023-04-25T00:42:41.412Z,1002.43
2023-04-25T00:43:41.398Z,1002.42
2023-04-25T00:44:41.374Z,1002.42
2023-04-25T00:45:41.361Z,1002.45
2023-04-25T00:46:41.385Z,1002.43
2023-04-25T00:47:41.399Z,1002.53
2023-04-25T00:48:41.374Z,1002.49
2023-04-25T00:49:41.335Z,1002.44
2023-04-25T00:50:41.319Z,1002.49
2023-04-25T00:51:41.303Z,1002.44
2023-04-25T00:52:41.304Z,1002.51
2023-04-25T00:53:41.284Z,1002.50
2023-04-25T00:54:41.311Z,1002.57
2023-04-25T00:55:41.262Z,1002.50
2023-04-25T00:56:41.255Z,1002.53
2023-04-25T00:57:41.226Z,1002.53
2023-04-25T00:58:41.252Z,1002.55
2023-04-25T00:59:41.206Z,1002.46
2023-04-25T01:00:41.212Z,1002.52
2023-04-25T01:01:41.197Z,1002.50
2023-04-25T01:02:41.408Z,1002.50
2023-04-25T01:03:41.322Z,1002.56
2023-04-25T01:04:41.175Z,1002.52
2023-04-25T01:05:41.143Z,1002.58
2023-04-25T01:06:41.133Z,1002.52
2023-04-25T01:07:41.153Z,1002.60
2023-04-25T01:08:41.125Z,1002.58
2023-04-25T01:09:41.094Z,1002.56
2023-04-25T01:10:41.087Z,1002.60
2023-04-25T01:11:41.150Z,1002.60
2023-04-25T01:12:41.091Z,1002.57
2023-04-25T01:13:41.069Z,1002.60
2023-04-25T01:14:41.055Z,1002.56
2023-04-25T01:15:41.033Z,1002.62
2023-04-25T01:16:41.064Z,1002.55
2023-04-25T01:17:41.035Z,1002.60
2023-04-25T01:18:41.012Z,1002.61
2023-04-25T01:19:41.007Z,1002.69
2023-04-25T01:20:41.016Z,1002.71
2023-04-25T01:21:41.030Z,1002.73
2023-04-25T01:22:40.949Z,1002.74
2023-04-25T01:23:40.971Z,1002.63
2023-04-25T01:24:40.927Z,1002.65
2023-04-25T01:25:40.927Z,1002.66
2023-04-25T01:26:40.909Z,1002.67
2023-04-25T01:27:40.891Z,1002.72
2023-04-25T01:28:40.885Z,1002.68
2023-04-25T01:29:40.996Z,1002.75
2023-04-25T01:30:40.860Z,1002.70
2023-04-25T01:31:40.923Z,1002.70
2023-04-25T01:32:40.879Z,1002.71
2023-04-25T01:33:40.831Z,1002.70
2023-04-25T01:34:40.831Z,1002.76
2023-04-25T01:35:40.835Z,1002.69
2023-04-25T01:36:40.827Z,1002.68
2023-04-25T01:37:40.793Z,1002.76
2023-04-25T01:38:40.794Z,1002.68
2023-04-25T01:39:40.765Z,1002.75
2023-04-25T01:40:40.801Z,1002.73
2023-04-25T01:41:40.739Z,1002.72
2023-04-25T01:42:40.750Z,1002.76
2023-04-25T01:43:40.712Z,1002.73
2023-04-25T01:44:40.739Z,1002.77
2023-04-25T01:45:40.749Z,1002.77
2023-04-25T01:46:40.744Z,1002.73
2023-04-25T01:47:40.693Z,1002.74
2023-04-25T01:48:40.659Z,1002.77
2023-04-25T01:49:40.665Z,1002.73
2023-04-25T01:50:40.666Z,1002.76
2023-04-25T01:51:40.623Z,1002.68
2023-04-25T01:52:40.654Z,1002.71
2023-04-25T01:53:40.601Z,1002.77
2023-04-25T01:54:40.593Z,1002.75
2023-04-25T01:55:40.620Z,1002.81
2023-04-25T01:56:40.598Z,1002.75
2023-04-25T01:57:40.562Z,1002.80
2023-04-25T01:58:40.548Z,1002.82
2023-04-25T01:59:40.533Z,1002.83
2023-04-25T02:00:40.528Z,1002.82
2023-04-25T02:01:40.564Z,1002.81
2023-04-25T02:02:40.766Z,1002.79
2023-04-25T02:03:40.644Z,1002.79
2023-04-25T02:04:40.596Z,1002.79
2023-04-25T02:05:40.481Z,1002.77
2023-04-25T02:06:40.490Z,1002.73
2023-04-25T02:07:40.444Z,1002.81
2023-04-25T02:08:40.458Z,1002.82
2023-04-25T02:09:40.443Z,1002.78
2023-04-25T02:10:40.440Z,1002.81
2023-04-25T02:11:40.402Z,1002.78
2023-04-25T02:12:40.409Z,1002.85
2023-04-25T02:13:40.395Z,1002.84
2023-04-25T02:14:40.373Z,1002.85
2023-04-25T02:15:40.422Z,1002.86
2023-04-25T02:16:40.460Z,1002.90
2023-04-25T02:17:40.428Z,1002.87
2023-04-25T02:18:40.323Z,1002.87
2023-04-25T02:19:40.313Z,1002.90
2023-04-25T02:20:40.312Z,1002.89
2023-04-25T02:21:40.337Z,1002.88
2023-04-25T02:22:40.295Z,1002.91
2023-04-25T02:23:40.266Z,1002.95
2023-04-25T02:24:40.278Z,1002.97
2023-04-25T02:25:40.242Z,1002.98
2023-04-25T02:26:40.249Z,1002.92
2023-04-25T02:27:40.234Z,1002.97
2023-04-25T02:28:40.215Z,1002.95
2023-04-25T02:29:40.201Z,1002.99
2023-04-25T02:30:40.203Z,1003.04
2023-04-25T02:31:40.265Z,1002.96
2023-04-25T02:32:40.236Z,1002.99
2023-04-25T02:33:40.158Z,1003.07
2023-04-25T02:34:40.159Z,1003.10
2023-04-25T02:35:40.132Z,1003.12
2023-04-25T02:36:40.137Z,1003.10
2023-04-25T02:37:40.130Z,1003.12
2023-04-25T02:38:40.108Z,1003.10
2023-04-25T02:39:40.088Z,1003.11
2023-04-25T02:40:40.111Z,1003.17
2023-04-25T02:41:40.070Z,1003.18
2023-04-25T02:42:40.081Z,1003.21
2023-04-25T02:43:40.051Z,1003.13
2023-04-25T02:44:40.043Z,1003.19
2023-04-25T02:45:40.028Z,1003.24
2023-04-25T02:46:40.149Z,1003.18
2023-04-25T02:47:40.062Z,1003.23
2023-04-25T02:48:39.991Z,1003.20
2023-04-25T02:49:39.980Z,1003.25
2023-04-25T02:50:39.964Z,1003.25
2023-04-25T02:51:39.955Z,1003.29
2023-04-25T02:52:39.988Z,1003.25
2023-04-25T02:53:39.953Z,1003.37
2023-04-25T02:54:39.922Z,1003.28
2023-04-25T02:55:39.907Z,1003.28
2023-04-25T02:56:39.918Z,1003.37
2023-04-25T02:57:39.887Z,1003.33
2023-04-25T02:58:39.887Z,1003.35
2023-04-25T02:59:39.897Z,1003.28
2023-04-25T03:00:39.901Z,1003.35
2023-04-25T03:01:39.871Z,1003.35
2023-04-25T03:02:39.881Z,1003.35
2023-04-25T03:03:39.874Z,1003.37
2023-04-25T03:04:39.855Z,1003.36
2023-04-25T03:05:39.824Z,1003.34
2023-04-25T03:06:39.787Z,1003.38
2023-04-25T03:07:39.784Z,1003.39
2023-04-25T03:08:39.774Z,1003.36
2023-04-25T03:09:39.765Z,1003.38
2023-04-25T03:10:39.738Z,1003.42
2023-04-25T03:11:39.739Z,1003.42
2023-04-25T03:12:39.737Z,1003.40
2023-04-25T03:13:39.712Z,1003.40
2023-04-25T03:14:39.705Z,1003.40
2023-04-25T03:15:39.689Z,1003.46
2023-04-25T03:16:39.717Z,1003.49
2023-04-25T03:17:39.757Z,1003.55
2023-04-25T03:18:39.652Z,1003.54
2023-04-25T03:19:39.661Z,1003.53
2023-04-25T03:20:39.628Z,1003.45
2023-04-25T03:21:39.617Z,1003.48
2023-04-25T03:22:39.616Z,1003.49
2023-04-25T03:23:39.606Z,1003.48
2023-04-25T03:24:39.583Z,1003.45
2023-04-25T03:25:39.602Z,1003.56
2023-04-25T03:26:39.569Z,1003.53
2023-04-25T03:27:39.547Z,1003.50
2023-04-25T03:28:39.572Z,1003.47
2023-04-25T03:29:39.533Z,1003.51
2023-04-25T03:30:39.540Z,1003.52
2023-04-25T03:31:39.542Z,1003.52
2023-04-25T03:32:39.529Z,1003.51
2023-04-25T03:33:39.484Z,1003.47
2023-04-25T03:34:39.472Z,1003.42
2023-04-25T03:35:39.475Z,1003.50
2023-04-25T03:36:41.624Z,1003.45
2023-04-25T03:37:39.456Z,1003.45
2023-04-25T03:38:39.447Z,1003.50
2023-04-25T03:39:39.417Z,1003.42
2023-04-25T03:40:39.407Z,1003.48
2023-04-25T03:41:39.413Z,1003.50
2023-04-25T03:42:39.385Z,1003.47
2023-04-25T03:43:39.393Z,1003.48
2023-04-25T03:44:39.381Z,1003.56
2023-04-25T03:45:39.374Z,1003.52
2023-04-25T03:46:39.352Z,1003.56
2023-04-25T03:47:39.357Z,1003.51
2023-04-25T03:48:39.328Z,1003.52
2023-04-25T03:49:39.366Z,1003.49
2023-04-25T03:50:39.295Z,1003.57
2023-04-25T03:51:39.294Z,1003.60
2023-04-25T03:52:39.287Z,1003.63
2023-04-25T03:53:39.265Z,1003.62
2023-04-25T03:54:39.253Z,1003.57
2023-04-25T03:55:39.741Z,1003.61
2023-04-25T03:56:39.236Z,1003.64
2023-04-25T03:57:39.222Z,1003.65
2023-04-25T03:58:39.207Z,1003.71
2023-04-25T03:59:39.200Z,1003.66
2023-04-25T04:00:39.205Z,1003.65
2023-04-25T04:01:39.178Z,1003.63
2023-04-25T04:02:39.260Z,1003.64
2023-04-25T04:03:39.513Z,1003.64
2023-04-25T04:04:39.371Z,1003.65
2023-04-25T04:05:39.190Z,1003.64
2023-04-25T04:06:39.115Z,1003.69
2023-04-25T04:07:39.109Z,1003.66
2023-04-25T04:08:39.104Z,1003.71
2023-04-25T04:09:39.080Z,1003.71
2023-04-25T04:10:39.072Z,1003.70
2023-04-25T04:11:39.058Z,1003.69
2023-04-25T04:12:39.057Z,1003.71
2023-04-25T04:13:39.033Z,1003.73
2023-04-25T04:14:39.037Z,1003.80
2023-04-25T04:15:39.059Z,1003.90
2023-04-25T04:16:39.049Z,1003.81
2023-04-25T04:17:39.013Z,1003.85
2023-04-25T04:18:38.981Z,1003.76
2023-04-25T04:19:38.983Z,1003.88
2023-04-25T04:20:38.956Z,1003.90
2023-04-25T04:21:38.965Z,1003.86
2023-04-25T04:22:38.941Z,1003.88
2023-04-25T04:23:39.764Z,1003.96
2023-04-25T04:24:38.939Z,1003.93
2023-04-25T04:25:38.895Z,1003.88
2023-04-25T04:26:38.895Z,1003.95
2023-04-25T04:27:38.884Z,1003.91
2023-04-25T04:28:38.885Z,1003.94
2023-04-25T04:29:38.864Z,1003.95
2023-04-25T04:30:38.860Z,1003.96
2023-04-25T04:31:38.879Z,1004.03
2023-04-25T04:32:38.894Z,1003.98
2023-04-25T04:33:38.829Z,1003.96
2023-04-25T04:34:38.811Z,1003.99
2023-04-25T04:35:38.784Z,1004.03
2023-04-25T04:36:38.793Z,1004.04
2023-04-25T04:37:38.779Z,1003.98
2023-04-25T04:38:40.101Z,1004.04
2023-04-25T04:39:38.753Z,1004.04
2023-04-25T04:40:38.799Z,1004.10
2023-04-25T04:41:38.719Z,1004.09
2023-04-25T04:42:38.708Z,1004.08
2023-04-25T04:43:38.705Z,1004.13
2023-04-25T04:44:38.707Z,1004.06
2023-04-25T04:45:38.675Z,1004.12
2023-04-25T04:46:38.818Z,1004.12
2023-04-25T04:47:38.755Z,1004.11
2023-04-25T04:48:38.669Z,1004.15
2023-04-25T04:49:38.646Z,1004.15
2023-04-25T04:50:38.620Z,1004.19
2023-04-25T04:51:38.644Z,1004.20
2023-04-25T04:52:38.604Z,1004.20
2023-04-25T04:53:38.613Z,1004.24
2023-04-25T04:54:38.582Z,1004.23
2023-04-25T04:55:38.585Z,1004.23
2023-04-25T04:56:38.563Z,1004.29
2023-04-25T04:57:38.556Z,1004.27
2023-04-25T04:58:38.543Z,1004.21
2023-04-25T04:59:38.541Z,1004.27
2023-04-25T05:00:38.659Z,1004.25
2023-04-25T05:01:38.536Z,1004.28
2023-04-25T05:02:38.664Z,1004.30
2023-04-25T05:03:38.646Z,1004.31
2023-04-25T05:04:38.555Z,1004.37
2023-04-25T05:05:38.453Z,1004.33
2023-04-25T05:06:38.460Z,1004.40
2023-04-25T05:07:38.449Z,1004.36
2023-04-25T05:08:38.419Z,1004.34
2023-04-25T05:09:38.410Z,1004.38
2023-04-25T05:10:38.397Z,1004.42
2023-04-25T05:11:38.411Z,1004.45
2023-04-25T05:12:38.424Z,1004.39
2023-04-25T05:13:38.365Z,1004.44
2023-04-25T05:14:38.354Z,1004.46
2023-04-25T05:15:38.341Z,1004.41
2023-04-25T05:16:38.406Z,1004.41
2023-04-25T05:17:38.448Z,1004.45
2023-04-25T05:18:38.345Z,1004.47
2023-04-25T05:19:38.295Z,1004.47
2023-04-25T05:20:38.305Z,1004.48
2023-04-25T05:21:38.272Z,1004.51
2023-04-25T05:22:38.258Z,1004.52
2023-04-25T05:23:38.261Z,1004.54
2023-04-25T05:24:38.265Z,1004.47
2023-04-25T05:25:38.245Z,1004.51
2023-04-25T05:26:38.214Z,1004.52
2023-04-25T05:27:38.210Z,1004.51
2023-04-25T05:28:38.219Z,1004.57
2023-04-25T05:29:38.205Z,1004.63
2023-04-25T05:30:38.170Z,1004.63
2023-04-25T05:31:38.187Z,1004.66
2023-04-25T05:32:38.184Z,1004.64
2023-04-25T05:33:38.149Z,1004.60
2023-04-25T05:34:38.146Z,1004.66
2023-04-25T05:35:38.122Z,1004.69
2023-04-25T05:36:38.141Z,1004.75
2023-04-25T05:37:38.102Z,1004.68
2023-04-25T05:38:38.078Z,1004.64
2023-04-25T05:39:38.073Z,1004.71
2023-04-25T05:40:38.073Z,1004.76
2023-04-25T05:41:38.047Z,1004.74
2023-04-25T05:42:38.032Z,1004.74
2023-04-25T05:43:38.024Z,1004.73
2023-04-25T05:44:38.056Z,1004.72
2023-04-25T05:45:38.028Z,1004.68
2023-04-25T05:46:38.020Z,1004.67
2023-04-25T05:47:38.020Z,1004.68
2023-04-25T05:48:37.963Z,1004.66
2023-04-25T05:49:37.957Z,1004.70
2023-04-25T05:50:37.969Z,1004.75
2023-04-25T05:51:37.936Z,1004.80
2023-04-25T05:52:37.938Z,1004.80
2023-04-25T05:53:37.912Z,1004.81
2023-04-25T05:54:37.906Z,1004.84
2023-04-25T05:55:37.903Z,1004.86
2023-04-25T05:56:37.872Z,1004.90
2023-04-25T05:57:37.879Z,1004.81
2023-04-25T05:58:37.870Z,1004.89
2023-04-25T05:59:37.846Z,1004.85
2023-04-25T06:00:37.846Z,1004.89
2023-04-25T06:01:37.820Z,1004.94
2023-04-25T06:02:38.029Z,1004.99
2023-04-25T06:03:38.004Z,1004.97
2023-04-25T06:04:38.192Z,1004.96
2023-04-25T06:05:37.855Z,1005.04
2023-04-25T06:06:37.763Z,1005.00
2023-04-25T06:07:37.756Z,1005.01
2023-04-25T06:08:37.760Z,1004.98
2023-04-25T06:09:37.751Z,1005.04
2023-04-25T06:10:37.717Z,1005.00
2023-04-25T06:11:37.716Z,1005.01
2023-04-25T06:12:37.696Z,1004.99
2023-04-25T06:13:37.683Z,1004.95
2023-04-25T06:14:37.674Z,1004.98
2023-04-25T06:15:37.739Z,1005.01
2023-04-25T06:16:37.676Z,1005.00
2023-04-25T06:17:37.701Z,1005.02
2023-04-25T06:18:37.630Z,1005.03
2023-04-25T06:19:37.630Z,1005.02
2023-04-25T06:20:37.608Z,1005.07
2023-04-25T06:21:37.627Z,1005.08
2023-04-25T06:22:37.594Z,1005.06
2023-04-25T06:23:37.573Z,1005.08
2023-04-25T06:24:37.580Z,1005.10
2023-04-25T06:25:37.556Z,1005.19
2023-04-25T06:26:37.536Z,1005.22
2023-04-25T06:27:37.542Z,1005.16
2023-04-25T06:28:37.517Z,1005.15
2023-04-25T06:29:37.520Z,1005.18
2023-04-25T06:30:37.498Z,1005.23
2023-04-25T06:31:37.548Z,1005.23
2023-04-25T06:32:37.487Z,1005.22
2023-04-25T06:33:37.488Z,1005.22
2023-04-25T06:34:37.461Z,1005.15
2023-04-25T06:35:37.450Z,1005.18
2023-04-25T06:36:37.422Z,1005.14
2023-04-25T06:37:37.419Z,1005.18
2023-04-25T06:38:37.428Z,1005.23
2023-04-25T06:39:39.897Z,1005.22
2023-04-25T06:40:37.412Z,1005.28
2023-04-25T06:41:37.370Z,1005.22
2023-04-25T06:42:37.386Z,1005.25
2023-04-25T06:43:37.350Z,1005.26
2023-04-25T06:44:37.336Z,1005.28
2023-04-25T06:45:37.337Z,1005.32
2023-04-25T06:46:37.335Z,1005.30
2023-04-25T06:47:37.334Z,1005.30
2023-04-25T06:48:37.320Z,1005.29
2023-04-25T06:49:37.280Z,1005.23
2023-04-25T06:50:37.273Z,1005.31
2023-04-25T06:51:37.271Z,1005.24
2023-04-25T06:52:37.271Z,1005.23
2023-04-25T06:53:37.246Z,1005.33
2023-04-25T06:54:37.235Z,1005.38
2023-04-25T06:55:37.227Z,1005.33
2023-04-25T06:56:37.270Z,1005.40
2023-04-25T06:57:37.202Z,1005.40
2023-04-25T06:58:37.195Z,1005.42
2023-04-25T06:59:37.199Z,1005.49
2023-04-25T07:00:37.194Z,1005.43
2023-04-25T07:01:37.189Z,1005.45
2023-04-25T07:02:37.372Z,1005.53
2023-04-25T07:03:37.282Z,1005.49
2023-04-25T07:04:37.381Z,1005.57
2023-04-25T07:05:37.114Z,1005.45
2023-04-25T07:06:37.112Z,1005.50
2023-04-25T07:07:37.092Z,1005.47
2023-04-25T07:08:37.090Z,1005.43
2023-04-25T07:09:37.098Z,1005.45
2023-04-25T07:10:37.051Z,1005.45
2023-04-25T07:11:37.048Z,1005.54
2023-04-25T07:12:37.049Z,1005.41
2023-04-25T07:13:37.037Z,1005.44
2023-04-25T07:14:37.041Z,1005.44
2023-04-25T07:15:36.998Z,1005.45
2023-04-25T07:16:37.012Z,1005.56
2023-04-25T07:17:37.014Z,1005.52
2023-04-25T07:18:36.973Z,1005.44
2023-04-25T07:19:36.953Z,1005.50
2023-04-25T07:20:36.963Z,1005.49
2023-04-25T07:21:36.950Z,1005.49
2023-04-25T07:22:36.918Z,1005.49
2023-04-25T07:23:36.925Z,1005.50
2023-04-25T07:24:36.907Z,1005.54
2023-04-25T07:25:36.908Z,1005.54
2023-04-25T07:26:36.876Z,1005.56
2023-04-25T07:27:36.871Z,1005.59
2023-04-25T07:28:36.871Z,1005.60
2023-04-25T07:29:36.860Z,1005.56
2023-04-25T07:30:36.828Z,1005.66
2023-04-25T07:31:36.892Z,1005.56
2023-04-25T07:32:36.845Z,1005.51
2023-04-25T07:33:36.799Z,1005.48
2023-04-25T07:34:36.825Z,1005.57
2023-04-25T07:35:36.788Z,1005.54
2023-04-25T07:36:36.761Z,1005.59
2023-04-25T07:37:36.765Z,1005.54
2023-04-25T07:38:36.742Z,1005.60
2023-04-25T07:39:36.733Z,1005.62
2023-04-25T07:40:36.757Z,1005.60
2023-04-25T07:41:36.714Z,1005.66
2023-04-25T07:42:36.698Z,1005.62
2023-04-25T07:43:36.686Z,1005.69
2023-04-25T07:44:36.705Z,1005.63
2023-04-25T07:45:36.714Z,1005.67
2023-04-25T07:46:36.661Z,1005.65
2023-04-25T07:47:36.668Z,1005.70
2023-04-25T07:48:36.630Z,1005.68
2023-04-25T07:49:36.637Z,1005.71
2023-04-25T07:50:36.631Z,1005.68
2023-04-25T07:51:36.623Z,1005.67
2023-04-25T07:52:36.588Z,1005.66
2023-04-25T07:53:36.576Z,1005.64
2023-04-25T07:54:36.563Z,1005.68
2023-04-25T07:55:36.555Z,1005.69
2023-04-25T07:56:49.195Z,1005.69
2023-04-25T07:57:37.562Z,1005.73
2023-04-25T07:58:36.520Z,1005.71
2023-04-25T07:59:36.506Z,1005.71
2023-04-25T08:00:36.516Z,1005.76
2023-04-25T08:01:36.488Z,1005.75
2023-04-25T08:02:36.635Z,1005.75
2023-04-25T08:03:36.699Z,1005.80
2023-04-25T08:04:36.682Z,1005.74
2023-04-25T08:05:36.538Z,1005.80
2023-04-25T08:06:36.533Z,1005.79
2023-04-25T08:07:36.435Z,1005.84
2023-04-25T08:08:36.426Z,1005.80
2023-04-25T08:09:36.418Z,1005.84
2023-04-25T08:10:36.403Z,1005.86
2023-04-25T08:11:36.372Z,1005.86
2023-04-25T08:12:36.354Z,1005.86
2023-04-25T08:13:36.357Z,1005.91
2023-04-25T08:14:36.341Z,1005.92
2023-04-25T08:15:36.370Z,1005.95
2023-04-25T08:16:36.349Z,1006.01
2023-04-25T08:17:36.343Z,1006.10
2023-04-25T08:18:36.309Z,1006.05
2023-04-25T08:19:36.305Z,1006.05
2023-04-25T08:20:36.270Z,1006.08
2023-04-25T08:21:36.264Z,1006.05
2023-04-25T08:22:36.256Z,1006.06
2023-04-25T08:23:36.245Z,1006.11
2023-04-25T08:24:37.986Z,1006.20
2023-04-25T08:25:36.214Z,1006.22
2023-04-25T08:26:36.202Z,1006.23
2023-04-25T08:27:36.196Z,1006.21
2023-04-25T08:28:36.200Z,1006.24
2023-04-25T08:29:36.179Z,1006.20
2023-04-25T08:30:36.192Z,1006.27
2023-04-25T08:31:36.255Z,1006.24
2023-04-25T08:32:36.166Z,1006.28
2023-04-25T08:33:36.130Z,1006.34
2023-04-25T08:34:36.125Z,1006.35
2023-04-25T08:35:36.174Z,1006.26
2023-04-25T08:36:39.936Z,1006.31
2023-04-25T08:37:36.079Z,1006.34
2023-04-25T08:38:36.063Z,1006.33
2023-04-25T08:39:36.059Z,1006.37
2023-04-25T08:40:36.069Z,1006.37
2023-04-25T08:41:36.064Z,1006.29
2023-04-25T08:42:36.845Z,1006.30
2023-04-25T08:43:36.023Z,1006.38
2023-04-25T08:44:36.008Z,1006.43
2023-04-25T08:45:36.018Z,1006.44
2023-04-25T08:46:36.027Z,1006.42
2023-04-25T08:47:35.987Z,1006.38
2023-04-25T08:48:35.992Z,1006.40
2023-04-25T08:49:35.956Z,1006.46
2023-04-25T08:50:35.946Z,1006.48
2023-04-25T08:51:35.930Z,1006.45
2023-04-25T08:52:35.905Z,1006.48
2023-04-25T08:53:36.378Z,1006.57
2023-04-25T08:54:37.208Z,1006.54
2023-04-25T08:55:35.906Z,1006.52
2023-04-25T08:56:35.873Z,1006.54
2023-04-25T08:57:35.853Z,1006.58
2023-04-25T08:58:35.842Z,1006.59
2023-04-25T08:59:37.869Z,1006.56
2023-04-25T09:00:35.830Z,1006.55
2023-04-25T09:01:35.881Z,1006.60
2023-04-25T09:02:35.912Z,1006.57
2023-04-25T09:03:35.945Z,1006.58
2023-04-25T09:04:35.886Z,1006.58
2023-04-25T09:05:35.781Z,1006.63
2023-04-25T09:06:35.801Z,1006.62
2023-04-25T09:07:35.743Z,1006.58
2023-04-25T09:08:35.759Z,1006.68
2023-04-25T09:09:35.724Z,1006.66
2023-04-25T09:10:35.718Z,1006.68
2023-04-25T09:11:35.694Z,1006.69
2023-04-25T09:12:35.706Z,1006.62
2023-04-25T09:13:35.668Z,1006.61
2023-04-25T09:14:35.662Z,1006.65
2023-04-25T09:15:35.653Z,1006.67
2023-04-25T09:16:37.156Z,1006.73
2023-04-25T09:17:35.716Z,1006.72
2023-04-25T09:18:35.633Z,1006.76
2023-04-25T09:20:40.460Z,1006.70
2023-04-25T09:21:36.595Z,1006.79
2023-04-25T09:22:35.584Z,1006.62
2023-04-25T09:23:35.560Z,1006.66
2023-04-25T09:24:35.565Z,1006.67
2023-04-25T09:25:35.553Z,1006.73
2023-04-25T09:26:35.538Z,1006.65
2023-04-25T09:27:35.524Z,1006.74
2023-04-25T09:28:35.502Z,1006.75
2023-04-25T09:29:35.490Z,1006.71
2023-04-25T09:30:35.587Z,1006.73
2023-04-25T09:31:35.511Z,1006.72
2023-04-25T09:32:35.597Z,1006.83
2023-04-25T09:33:35.451Z,1006.84
2023-04-25T09:34:35.465Z,1006.84
2023-04-25T09:35:35.448Z,1006.83
2023-04-25T09:36:35.465Z,1006.82
2023-04-25T09:37:35.416Z,1006.81
2023-04-25T09:38:35.398Z,1006.81
2023-04-25T09:39:35.410Z,1006.88
2023-04-25T09:40:35.404Z,1006.86
2023-04-25T09:41:35.358Z,1006.81
2023-04-25T09:42:35.399Z,1006.86
2023-04-25T09:43:35.365Z,1006.87
2023-04-25T09:44:35.393Z,1006.90
2023-04-25T09:45:35.349Z,1006.90
2023-04-25T09:46:35.405Z,1006.98
2023-04-25T09:47:35.364Z,1007.00
2023-04-25T09:48:35.292Z,1006.91
2023-04-25T09:49:35.317Z,1006.95
2023-04-25T09:50:35.270Z,1006.96
2023-04-25T09:51:35.302Z,1007.03
2023-04-25T09:52:35.270Z,1007.02
2023-04-25T09:53:35.251Z,1007.07
2023-04-25T09:54:35.225Z,1007.02
2023-04-25T09:55:35.236Z,1007.07
2023-04-25T09:56:35.194Z,1007.08
2023-04-25T09:57:35.189Z,1007.04
2023-04-25T09:58:35.175Z,1007.07
2023-04-25T09:59:35.184Z,1007.04
2023-04-25T10:00:35.158Z,1007.16
2023-04-25T10:01:35.225Z,1007.19
2023-04-25T10:02:35.203Z,1007.09
2023-04-25T10:03:35.370Z,1007.13
2023-04-25T10:04:35.158Z,1007.17
2023-04-25T10:05:35.105Z,1007.18
2023-04-25T10:06:35.088Z,1007.23
2023-04-25T10:07:35.088Z,1007.23
2023-04-25T10:08:35.125Z,1007.27
2023-04-25T10:09:35.078Z,1007.26
2023-04-25T10:10:35.058Z,1007.31
2023-04-25T10:11:35.039Z,1007.29
2023-04-25T10:12:35.308Z,1007.31
2023-04-25T10:13:35.023Z,1007.30
2023-04-25T10:14:35.012Z,1007.40
2023-04-25T10:15:36.020Z,1007.30
2023-04-25T10:16:34.991Z,1007.37
2023-04-25T10:17:35.044Z,1007.45
2023-04-25T10:18:34.990Z,1007.41
2023-04-25T10:19:34.956Z,1007.41
2023-04-25T10:20:34.938Z,1007.43
2023-04-25T10:21:34.982Z,1007.49
2023-04-25T10:22:34.913Z,1007.48
2023-04-25T10:23:34.898Z,1007.51
2023-04-25T10:24:34.944Z,1007.49
2023-04-25T10:25:34.913Z,1007.46
2023-04-25T10:26:34.866Z,1007.50
2023-04-25T10:27:34.855Z,1007.57
2023-04-25T10:28:34.845Z,1007.53
2023-04-25T10:29:34.835Z,1007.61
2023-04-25T10:30:34.895Z,1007.61
2023-04-25T10:31:34.900Z,1007.62
2023-04-25T10:32:34.821Z,1007.59
2023-04-25T10:33:34.798Z,1007.56
2023-04-25T10:34:34.782Z,1007.66
2023-04-25T10:35:34.783Z,1007.65
2023-04-25T10:36:34.758Z,1007.73
2023-04-25T10:37:34.778Z,1007.80
2023-04-25T10:38:34.734Z,1007.86
2023-04-25T10:39:34.722Z,1007.85
2023-04-25T10:40:34.742Z,1007.90
2023-04-25T10:41:34.694Z,1007.91
2023-04-25T10:42:34.707Z,1007.93
2023-04-25T10:43:34.682Z,1007.89
2023-04-25T10:44:34.664Z,1007.78
2023-04-25T10:45:34.672Z,1007.87
2023-04-25T10:46:34.719Z,1007.81
2023-04-25T10:47:34.675Z,1007.83
2023-04-25T10:48:34.625Z,1007.73
2023-04-25T10:49:34.623Z,1007.70
2023-04-25T10:50:34.609Z,1007.74
2023-04-25T10:51:43.400Z,1007.81
2023-04-25T10:52:35.608Z,1007.75
2023-04-25T10:53:34.582Z,1007.72
2023-04-25T10:54:34.556Z,1007.74
2023-04-25T10:55:34.539Z,1007.79
2023-04-25T10:56:34.556Z,1007.80
2023-04-25T10:57:34.594Z,1007.78
2023-04-25T10:58:34.529Z,1007.70
2023-04-25T10:59:34.492Z,1007.74
2023-04-25T11:00:48.046Z,1007.73
2023-04-25T11:01:35.499Z,1007.75
2023-04-25T11:02:34.573Z,1007.69
2023-04-25T11:03:34.617Z,1007.74
2023-04-25T11:04:34.739Z,1007.64
2023-04-25T11:05:36.511Z,1007.63
2023-04-25T11:06:35.450Z,1007.57
2023-04-25T11:07:34.405Z,1007.68
2023-04-25T11:08:34.408Z,1007.60
2023-04-25T11:09:34.406Z,1007.63
2023-04-25T11:10:34.374Z,1007.57
2023-04-25T11:11:34.361Z,1007.64
2023-04-25T11:12:34.371Z,1007.65
2023-04-25T11:13:34.356Z,1007.71
2023-04-25T11:14:34.330Z,1007.65
2023-04-25T11:15:34.346Z,1007.57
2023-04-25T11:16:34.332Z,1007.60
2023-04-25T11:17:34.443Z,1007.57
2023-04-25T11:18:34.296Z,1007.60
2023-04-25T11:19:34.278Z,1007.63
2023-04-25T11:20:34.265Z,1007.57
2023-04-25T11:21:34.268Z,1007.59
2023-04-25T11:22:34.241Z,1007.51
2023-04-25T11:23:34.238Z,1007.57
2023-04-25T11:24:34.233Z,1007.54
2023-04-25T11:25:35.416Z,1007.53
2023-04-25T11:26:34.200Z,1007.45
2023-04-25T11:27:34.204Z,1007.48
2023-04-25T11:28:34.198Z,1007.49
2023-04-25T11:29:34.178Z,1007.52
2023-04-25T11:30:34.157Z,1007.50
2023-04-25T11:31:34.205Z,1007.44
2023-04-25T11:32:34.204Z,1007.47
2023-04-25T11:33:34.148Z,1007.53
2023-04-25T11:34:34.355Z,1007.47
2023-04-25T11:35:34.098Z,1007.51
2023-04-25T11:36:34.095Z,1007.53
2023-04-25T11:37:34.072Z,1007.50
2023-04-25T11:38:34.065Z,1007.50
2023-04-25T11:39:34.076Z,1007.50
2023-04-25T11:40:34.060Z,1007.43
2023-04-25T11:41:34.088Z,1007.47
2023-04-25T11:42:34.024Z,1007.52
2023-04-25T11:43:34.877Z,1007.56
2023-04-25T11:44:34.128Z,1007.56
2023-04-25T11:45:34.046Z,1007.51
2023-04-25T11:46:34.082Z,1007.58
2023-04-25T11:47:33.973Z,1007.50
2023-04-25T11:48:33.969Z,1007.54
2023-04-25T11:49:33.963Z,1007.56
2023-04-25T11:50:33.953Z,1007.65
2023-04-25T11:51:33.929Z,1007.73
2023-04-25T11:52:33.913Z,1007.66
2023-04-25T11:53:33.907Z,1007.68
2023-04-25T11:54:34.015Z,1007.63
2023-04-25T11:55:33.904Z,1007.68
2023-04-25T11:56:33.868Z,1007.71
2023-04-25T11:57:33.865Z,1007.79
2023-04-25T11:58:33.851Z,1007.78
2023-04-25T11:59:33.830Z,1007.71
2023-04-25T12:00:33.993Z,1007.79
2023-04-25T12:01:35.447Z,1007.76
2023-04-25T12:02:33.892Z,1007.75
2023-04-25T12:03:33.903Z,1007.72
2023-04-25T12:04:34.066Z,1007.76
2023-04-25T12:05:34.758Z,1007.73
2023-04-25T12:06:33.801Z,1007.74